Thaleia — OJ8123 — position and weather

sailwx.info

Track history (hours):
 
Tides and Currents Weather Stations Pressure Air Temp Water Temp Dewpoint Dewpoint Depression Visibility Wind Speed Wind Dir Waves Ship Positions

Thaleia

Last reported at 2017-Sep-25 11:52 UTC. Time now 2017-Sep-26 02:21 UTC.
Position N 39°19' E 003°12'.

Length 15 m.

Type: Sailing vessel. MMSI: 230939950.

Date/timePositionNaut miles runAvg speedWind from/ knotsBaromVisibWave heightAir tempDewpointWater temp
2017-Sep-25 11:52N 39°19' E 003°12'3 5.5
2017-Sep-25 11:14N 39°17' E 003°08'4 6.0
2017-Sep-25 10:34N 39°16' E 003°03'1 6.9
2017-Sep-25 10:24N 39°16' E 003°01'3 7.2
2017-Sep-25 10:00N 39°18' E 002°59'1 2.5
2017-Sep-25 09:27N 39°20' E 002°59'0 0.0
2017-Sep-25 08:57N 39°20' E 002°59'0 0.0
2017-Sep-25 08:27N 39°20' E 002°59'0 0.0
2017-Sep-25 06:50N 39°20' E 002°59'0 0.0
2017-Sep-25 06:26N 39°20' E 002°59'0 0.0
2017-Sep-25 05:56N 39°20' E 002°59'0 0.0
2017-Sep-25 05:26N 39°20' E 002°59'0 0.0
2017-Sep-25 03:56N 39°20' E 002°59'0 0.0
2017-Sep-25 03:08N 39°20' E 002°59'0 0.0
2017-Sep-25 02:32N 39°20' E 002°59'0 0.0
2017-Sep-25 02:02N 39°20' E 002°59'0 0.0
2017-Sep-25 01:50N 39°20' E 002°59'0 0.0
2017-Sep-25 01:26N 39°20' E 002°59'0 0.0
2017-Sep-25 00:32N 39°20' E 002°59'0 0.0
2017-Sep-25 00:26N 39°20' E 002°59'0 0.0
2017-Sep-24 23:56N 39°20' E 002°59'0 0.0
2017-Sep-24 23:20N 39°20' E 002°59'0 0.0
2017-Sep-24 22:56N 39°20' E 002°59'0 0.0
2017-Sep-24 22:26N 39°20' E 002°59'0 0.0
2017-Sep-24 21:26N 39°20' E 002°59'0 0.0
2017-Sep-24 20:56N 39°20' E 002°59'0 0.0
2017-Sep-24 20:26N 39°20' E 002°59'0 0.0
2017-Sep-24 19:56N 39°20' E 002°59'0 0.0
2017-Sep-24 19:26N 39°20' E 002°59'0 0.0
2017-Sep-24 18:56N 39°20' E 002°59'0 0.0
2017-Sep-24 18:20N 39°20' E 002°59'0 0.0
2017-Sep-24 17:44N 39°20' E 002°59'0 0.0
2017-Sep-24 17:20N 39°20' E 002°59'0 0.0
2017-Sep-24 16:57N 39°20' E 002°59'2 4.6
2017-Sep-24 16:30N 39°20' E 002°57'3 6.4
2017-Sep-24 15:58N 39°21' E 002°53'4 1.8
2017-Sep-24 13:32N 39°22' E 002°47'0 7.5
2017-Sep-24 13:29N 39°22' E 002°47'2 4.9
2017-Sep-24 13:00N 39°23' E 002°44'3 5.5
2017-Sep-24 12:30N 39°26' E 002°42'3 6.2
2017-Sep-24 12:00N 39°28' E 002°40'3 6.9
2017-Sep-24 11:30N 39°31' E 002°38'2 4.3
2017-Sep-24 11:00N 39°33' E 002°38'1 1.1
2017-Sep-24 10:29N 39°34' E 002°38'0 0.0
2017-Sep-24 09:59N 39°34' E 002°38'0 0.0
2017-Sep-24 09:29N 39°34' E 002°38'0 0.0
2017-Sep-24 08:59N 39°34' E 002°38'0 0.0
2017-Sep-24 08:29N 39°34' E 002°38'0 0.0
2017-Sep-24 07:59N 39°34' E 002°38'0 0.0
2017-Sep-24 07:29N 39°34' E 002°38'0 0.0
2017-Sep-24 06:59N 39°34' E 002°38'0 0.0
2017-Sep-24 06:29N 39°34' E 002°38'0 0.0
2017-Sep-24 05:59N 39°34' E 002°38'0 0.0
2017-Sep-24 05:29N 39°34' E 002°38'0 0.0
2017-Sep-23 22:59N 39°34' E 002°38'0 0.0
2017-Sep-23 22:29N 39°34' E 002°38'0 0.0
2017-Sep-23 21:59N 39°34' E 002°38'0 0.0
2017-Sep-23 21:29N 39°34' E 002°38'0 0.0
2017-Sep-23 20:59N 39°34' E 002°38'0 0.0
2017-Sep-23 20:29N 39°34' E 002°38'0 0.0
2017-Sep-23 19:59N 39°34' E 002°38'0 0.0
2017-Sep-22 02:00N 39°34' E 002°38'0 0.0
2017-Sep-22 01:30N 39°34' E 002°38'0 0.0
2017-Sep-22 01:00N 39°34' E 002°38'0 0.0
2017-Sep-22 00:30N 39°34' E 002°38'0 0.0
2017-Sep-21 23:57N 39°34' E 002°38'0 0.0
2017-Sep-21 23:30N 39°34' E 002°38'0 0.0
2017-Sep-21 23:00N 39°34' E 002°38'0 0.0
2017-Sep-21 22:30N 39°34' E 002°38'0 0.0
2017-Sep-21 22:00N 39°34' E 002°38'0 0.0
2017-Sep-21 21:30N 39°34' E 002°38'0 0.0
2017-Sep-21 21:00N 39°34' E 002°38'0 0.0
2017-Sep-21 20:30N 39°34' E 002°38'0 0.0
2017-Sep-21 20:00N 39°34' E 002°38'0 0.0
2017-Sep-21 19:30N 39°34' E 002°38'0 0.0
2017-Sep-21 19:00N 39°34' E 002°38'0 0.0
2017-Sep-21 18:30N 39°34' E 002°38'0 0.0
2017-Sep-21 18:00N 39°34' E 002°38'0 0.0
2017-Sep-21 17:30N 39°34' E 002°38'0 0.0
2017-Sep-21 17:00N 39°34' E 002°38'0 0.0
2017-Sep-21 16:30N 39°34' E 002°38'0 0.0
2017-Sep-21 16:00N 39°34' E 002°38'0 0.0
2017-Sep-21 15:30N 39°34' E 002°38'0 0.0
2017-Sep-21 15:00N 39°34' E 002°38'0 0.0
2017-Sep-21 14:30N 39°34' E 002°38'0 0.0
2017-Sep-21 14:00N 39°34' E 002°38'0 0.0
2017-Sep-21 13:30N 39°34' E 002°38'0 0.0
2017-Sep-21 13:00N 39°34' E 002°38'0 0.0
2017-Sep-21 12:30N 39°34' E 002°38'0 0.0
2017-Sep-21 12:00N 39°34' E 002°38'0 0.0
2017-Sep-21 11:31N 39°34' E 002°38'0 0.0
2017-Sep-21 11:00N 39°34' E 002°38'0 0.0
2017-Sep-21 10:30N 39°34' E 002°38'0 0.0
2017-Sep-21 10:00N 39°34' E 002°38'0 0.0
2017-Sep-21 09:30N 39°34' E 002°38'0 0.0
2017-Sep-21 08:57N 39°34' E 002°38'0 0.0
2017-Sep-21 08:30N 39°34' E 002°38'0 0.0
2017-Sep-21 08:01N 39°34' E 002°38'0 0.0
2017-Sep-21 07:31N 39°34' E 002°38'0 0.0
2017-Sep-21 07:01N 39°34' E 002°38'0 0.0
2017-Sep-21 06:28N 39°34' E 002°38'0 0.0
2017-Sep-21 06:01N 39°34' E 002°38'0 0.0
2017-Sep-21 05:31N 39°34' E 002°38'0 0.0
2017-Sep-21 04:58N 39°34' E 002°38'0 0.0
2017-Sep-21 04:28N 39°34' E 002°38'0 0.0
2017-Sep-21 03:58N 39°34' E 002°38'0 0.0
2017-Sep-21 03:28N 39°34' E 002°38'0 0.0
2017-Sep-21 02:58N 39°34' E 002°38'0 0.0
2017-Sep-21 02:28N 39°34' E 002°38'0 0.0
2017-Sep-21 01:58N 39°34' E 002°38'0 0.0
2017-Sep-21 01:28N 39°34' E 002°38'0 0.0
2017-Sep-21 00:58N 39°34' E 002°38'0 0.0
2017-Sep-21 00:28N 39°34' E 002°38'0 0.0
2017-Sep-20 23:58N 39°34' E 002°38'0 0.0
2017-Sep-20 23:28N 39°34' E 002°38'0 0.0
2017-Sep-20 22:58N 39°34' E 002°38'0 0.0
2017-Sep-20 22:28N 39°34' E 002°38'0 0.0
2017-Sep-20 21:58N 39°34' E 002°38'0 0.0
2017-Sep-20 21:28N 39°34' E 002°38'0 0.0
2017-Sep-20 20:58N 39°34' E 002°38'0 0.0
2017-Sep-20 20:28N 39°34' E 002°38'0 0.0
2017-Sep-20 19:58N 39°34' E 002°38'0 0.0
2017-Sep-20 19:28N 39°34' E 002°38'0 0.0
2017-Sep-20 18:58N 39°34' E 002°38'0 0.0
2017-Sep-20 18:28N 39°34' E 002°38'0 0.0
2017-Sep-20 17:58N 39°34' E 002°38'0 0.0
2017-Sep-20 17:28N 39°34' E 002°38'0 0.0
2017-Sep-20 16:58N 39°34' E 002°38'0 0.0
2017-Sep-20 16:28N 39°34' E 002°38'1 2.5
2017-Sep-20 16:00N 39°33' E 002°38'3 7.1
2017-Sep-20 15:30N 39°30' E 002°35'2 4.1
2017-Sep-20 15:00N 39°29' E 002°33'1 0.6
2017-Sep-20 12:47N 39°28' E 002°32'2 7.5
2017-Sep-20 12:30N 39°27' E 002°34'3 5.5
2017-Sep-20 11:59N 39°28' E 002°38'3 7.1
2017-Sep-20 11:30N 39°31' E 002°38'2 4.9
2017-Sep-20 10:59N 39°34' E 002°38'0 0.0
2017-Sep-20 10:29N 39°34' E 002°38'0 0.0
2017-Sep-20 09:56N 39°34' E 002°38'0 0.0
2017-Sep-20 09:29N 39°34' E 002°38'0 0.0
2017-Sep-20 08:59N 39°34' E 002°38'0 0.0
2017-Sep-20 08:29N 39°34' E 002°38'0 0.0
2017-Sep-20 07:59N 39°34' E 002°38'0 0.0
2017-Sep-20 07:29N 39°34' E 002°38'0 0.0
2017-Sep-20 06:59N 39°34' E 002°38'0 0.0
2017-Sep-20 06:29N 39°34' E 002°38'0 0.0
2017-Sep-20 05:59N 39°34' E 002°38'0 0.0
2017-Sep-20 05:29N 39°34' E 002°38'0 0.0
2017-Sep-20 04:59N 39°34' E 002°38'0 0.0
2017-Sep-20 04:29N 39°34' E 002°38'0 0.0
2017-Sep-20 03:59N 39°34' E 002°38'0 0.0
2017-Sep-20 03:29N 39°34' E 002°38'0 0.0
2017-Sep-20 02:59N 39°34' E 002°38'0 0.0
2017-Sep-20 02:29N 39°34' E 002°38'0 0.0
2017-Sep-20 01:59N 39°34' E 002°38'0 0.0
2017-Sep-20 01:29N 39°34' E 002°38'0 0.0
2017-Sep-20 00:59N 39°34' E 002°38'0 0.0
2017-Sep-20 00:29N 39°34' E 002°38'0 0.0
2017-Sep-19 23:59N 39°34' E 002°38'0 0.0
2017-Sep-19 23:29N 39°34' E 002°38'0 0.0
2017-Sep-19 22:59N 39°34' E 002°38'0 0.0
2017-Sep-19 22:29N 39°34' E 002°38'0 0.0
2017-Sep-19 21:59N 39°34' E 002°38'0 0.0
2017-Sep-19 21:29N 39°34' E 002°38'0 0.0
2017-Sep-19 20:59N 39°34' E 002°38'0 0.0
2017-Sep-19 20:29N 39°34' E 002°38'0 0.0
2017-Sep-19 19:59N 39°34' E 002°38'0 0.0
2017-Sep-19 19:29N 39°34' E 002°38'0 0.0
2017-Sep-19 18:59N 39°34' E 002°38'0 0.0
2017-Sep-19 18:29N 39°34' E 002°38'0 0.0
2017-Sep-19 17:56N 39°34' E 002°38'0 0.0
2017-Sep-19 17:29N 39°34' E 002°38'0 0.0
2017-Sep-19 16:59N 39°34' E 002°38'0 0.0
2017-Sep-19 16:29N 39°34' E 002°38'0 0.0
2017-Sep-19 15:59N 39°34' E 002°38'0 0.0
2017-Sep-19 15:29N 39°34' E 002°38'0 0.0
2017-Sep-19 14:59N 39°34' E 002°38'0 0.0
2017-Sep-19 14:29N 39°34' E 002°38'0 0.0
2017-Sep-19 13:59N 39°34' E 002°38'0 0.0
2017-Sep-19 13:29N 39°34' E 002°38'0 0.0
2017-Sep-19 12:59N 39°34' E 002°38'0 0.0
2017-Sep-19 12:29N 39°34' E 002°38'0 0.0
2017-Sep-19 11:59N 39°34' E 002°38'0 0.0
2017-Sep-19 11:29N 39°34' E 002°38'0 0.0
2017-Sep-19 10:59N 39°34' E 002°38'0 0.0
2017-Sep-19 10:29N 39°34' E 002°38'0 0.0
2017-Sep-19 09:59N 39°34' E 002°38'0 0.0
2017-Sep-19 09:30N 39°34' E 002°38'  
Track history (hours):
 
Tides and Currents Weather Stations Pressure Air Temp Water Temp Dewpoint Dewpoint Depression Visibility Wind Speed Wind Dir Waves Ship Positions

Thaleia

Last reported at 2017-Sep-25 11:52 UTC. Time now 2017-Sep-26 02:21 UTC.
Position N 39°19' E 003°12'.

Length 15 m.

Type: Sailing vessel. MMSI: 230939950.

Date/timePositionNaut miles runAvg speedWind from/ knotsBaromVisibWave heightAir tempDewpointWater temp
2017-Sep-25 11:52N 39°19' E 003°12'3 5.5
2017-Sep-25 11:14N 39°17' E 003°08'4 6.0
2017-Sep-25 10:34N 39°16' E 003°03'1 6.9
2017-Sep-25 10:24N 39°16' E 003°01'3 7.2
2017-Sep-25 10:00N 39°18' E 002°59'1 2.5
2017-Sep-25 09:27N 39°20' E 002°59'0 0.0
2017-Sep-25 08:57N 39°20' E 002°59'0 0.0
2017-Sep-25 08:27N 39°20' E 002°59'0 0.0
2017-Sep-25 06:50N 39°20' E 002°59'0 0.0
2017-Sep-25 06:26N 39°20' E 002°59'0 0.0
2017-Sep-25 05:56N 39°20' E 002°59'0 0.0
2017-Sep-25 05:26N 39°20' E 002°59'0 0.0
2017-Sep-25 03:56N 39°20' E 002°59'0 0.0
2017-Sep-25 03:08N 39°20' E 002°59'0 0.0
2017-Sep-25 02:32N 39°20' E 002°59'0 0.0
2017-Sep-25 02:02N 39°20' E 002°59'0 0.0
2017-Sep-25 01:50N 39°20' E 002°59'0 0.0
2017-Sep-25 01:26N 39°20' E 002°59'0 0.0
2017-Sep-25 00:32N 39°20' E 002°59'0 0.0
2017-Sep-25 00:26N 39°20' E 002°59'0 0.0
2017-Sep-24 23:56N 39°20' E 002°59'0 0.0
2017-Sep-24 23:20N 39°20' E 002°59'0 0.0
2017-Sep-24 22:56N 39°20' E 002°59'0 0.0
2017-Sep-24 22:26N 39°20' E 002°59'0 0.0
2017-Sep-24 21:26N 39°20' E 002°59'0 0.0
2017-Sep-24 20:56N 39°20' E 002°59'0 0.0
2017-Sep-24 20:26N 39°20' E 002°59'0 0.0
2017-Sep-24 19:56N 39°20' E 002°59'0 0.0
2017-Sep-24 19:26N 39°20' E 002°59'0 0.0
2017-Sep-24 18:56N 39°20' E 002°59'0 0.0
2017-Sep-24 18:20N 39°20' E 002°59'0 0.0
2017-Sep-24 17:44N 39°20' E 002°59'0 0.0
2017-Sep-24 17:20N 39°20' E 002°59'0 0.0
2017-Sep-24 16:57N 39°20' E 002°59'2 4.6
2017-Sep-24 16:30N 39°20' E 002°57'3 6.4
2017-Sep-24 15:58N 39°21' E 002°53'4 1.8
2017-Sep-24 13:32N 39°22' E 002°47'0 7.5
2017-Sep-24 13:29N 39°22' E 002°47'2 4.9
2017-Sep-24 13:00N 39°23' E 002°44'3 5.5
2017-Sep-24 12:30N 39°26' E 002°42'3 6.2
2017-Sep-24 12:00N 39°28' E 002°40'3 6.9
2017-Sep-24 11:30N 39°31' E 002°38'2 4.3
2017-Sep-24 11:00N 39°33' E 002°38'1 1.1
2017-Sep-24 10:29N 39°34' E 002°38'0 0.0
2017-Sep-24 09:59N 39°34' E 002°38'0 0.0
2017-Sep-24 09:29N 39°34' E 002°38'0 0.0
2017-Sep-24 08:59N 39°34' E 002°38'0 0.0
2017-Sep-24 08:29N 39°34' E 002°38'0 0.0
2017-Sep-24 07:59N 39°34' E 002°38'0 0.0
2017-Sep-24 07:29N 39°34' E 002°38'0 0.0
2017-Sep-24 06:59N 39°34' E 002°38'0 0.0
2017-Sep-24 06:29N 39°34' E 002°38'0 0.0
2017-Sep-24 05:59N 39°34' E 002°38'0 0.0
2017-Sep-24 05:29N 39°34' E 002°38'0 0.0
2017-Sep-23 22:59N 39°34' E 002°38'0 0.0
2017-Sep-23 22:29N 39°34' E 002°38'0 0.0
2017-Sep-23 21:59N 39°34' E 002°38'0 0.0
2017-Sep-23 21:29N 39°34' E 002°38'0 0.0
2017-Sep-23 20:59N 39°34' E 002°38'0 0.0
2017-Sep-23 20:29N 39°34' E 002°38'0 0.0
2017-Sep-23 19:59N 39°34' E 002°38'0 0.0
2017-Sep-22 02:00N 39°34' E 002°38'0 0.0
2017-Sep-22 01:30N 39°34' E 002°38'0 0.0
2017-Sep-22 01:00N 39°34' E 002°38'0 0.0
2017-Sep-22 00:30N 39°34' E 002°38'0 0.0
2017-Sep-21 23:57N 39°34' E 002°38'0 0.0
2017-Sep-21 23:30N 39°34' E 002°38'0 0.0
2017-Sep-21 23:00N 39°34' E 002°38'0 0.0
2017-Sep-21 22:30N 39°34' E 002°38'0 0.0
2017-Sep-21 22:00N 39°34' E 002°38'0 0.0
2017-Sep-21 21:30N 39°34' E 002°38'0 0.0
2017-Sep-21 21:00N 39°34' E 002°38'0 0.0
2017-Sep-21 20:30N 39°34' E 002°38'0 0.0
2017-Sep-21 20:00N 39°34' E 002°38'0 0.0
2017-Sep-21 19:30N 39°34' E 002°38'0 0.0
2017-Sep-21 19:00N 39°34' E 002°38'0 0.0
2017-Sep-21 18:30N 39°34' E 002°38'0 0.0
2017-Sep-21 18:00N 39°34' E 002°38'0 0.0
2017-Sep-21 17:30N 39°34' E 002°38'0 0.0
2017-Sep-21 17:00N 39°34' E 002°38'0 0.0
2017-Sep-21 16:30N 39°34' E 002°38'0 0.0
2017-Sep-21 16:00N 39°34' E 002°38'0 0.0
2017-Sep-21 15:30N 39°34' E 002°38'0 0.0
2017-Sep-21 15:00N 39°34' E 002°38'0 0.0
2017-Sep-21 14:30N 39°34' E 002°38'0 0.0
2017-Sep-21 14:00N 39°34' E 002°38'0 0.0
2017-Sep-21 13:30N 39°34' E 002°38'0 0.0
2017-Sep-21 13:00N 39°34' E 002°38'0 0.0
2017-Sep-21 12:30N 39°34' E 002°38'0 0.0
2017-Sep-21 12:00N 39°34' E 002°38'0 0.0
2017-Sep-21 11:31N 39°34' E 002°38'0 0.0
2017-Sep-21 11:00N 39°34' E 002°38'0 0.0
2017-Sep-21 10:30N 39°34' E 002°38'0 0.0
2017-Sep-21 10:00N 39°34' E 002°38'0 0.0
2017-Sep-21 09:30N 39°34' E 002°38'0 0.0
2017-Sep-21 08:57N 39°34' E 002°38'0 0.0
2017-Sep-21 08:30N 39°34' E 002°38'0 0.0
2017-Sep-21 08:01N 39°34' E 002°38'0 0.0
2017-Sep-21 07:31N 39°34' E 002°38'0 0.0
2017-Sep-21 07:01N 39°34' E 002°38'0 0.0
2017-Sep-21 06:28N 39°34' E 002°38'0 0.0
2017-Sep-21 06:01N 39°34' E 002°38'0 0.0
2017-Sep-21 05:31N 39°34' E 002°38'0 0.0
2017-Sep-21 04:58N 39°34' E 002°38'0 0.0
2017-Sep-21 04:28N 39°34' E 002°38'0 0.0
2017-Sep-21 03:58N 39°34' E 002°38'0 0.0
2017-Sep-21 03:28N 39°34' E 002°38'0 0.0
2017-Sep-21 02:58N 39°34' E 002°38'0 0.0
2017-Sep-21 02:28N 39°34' E 002°38'0 0.0
2017-Sep-21 01:58N 39°34' E 002°38'0 0.0
2017-Sep-21 01:28N 39°34' E 002°38'0 0.0
2017-Sep-21 00:58N 39°34' E 002°38'0 0.0
2017-Sep-21 00:28N 39°34' E 002°38'0 0.0
2017-Sep-20 23:58N 39°34' E 002°38'0 0.0
2017-Sep-20 23:28N 39°34' E 002°38'0 0.0
2017-Sep-20 22:58N 39°34' E 002°38'0 0.0
2017-Sep-20 22:28N 39°34' E 002°38'0 0.0
2017-Sep-20 21:58N 39°34' E 002°38'0 0.0
2017-Sep-20 21:28N 39°34' E 002°38'0 0.0
2017-Sep-20 20:58N 39°34' E 002°38'0 0.0
2017-Sep-20 20:28N 39°34' E 002°38'0 0.0
2017-Sep-20 19:58N 39°34' E 002°38'0 0.0
2017-Sep-20 19:28N 39°34' E 002°38'0 0.0
2017-Sep-20 18:58N 39°34' E 002°38'0 0.0
2017-Sep-20 18:28N 39°34' E 002°38'0 0.0
2017-Sep-20 17:58N 39°34' E 002°38'0 0.0
2017-Sep-20 17:28N 39°34' E 002°38'0 0.0
2017-Sep-20 16:58N 39°34' E 002°38'0 0.0
2017-Sep-20 16:28N 39°34' E 002°38'1 2.5
2017-Sep-20 16:00N 39°33' E 002°38'3 7.1
2017-Sep-20 15:30N 39°30' E 002°35'2 4.1
2017-Sep-20 15:00N 39°29' E 002°33'1 0.6
2017-Sep-20 12:47N 39°28' E 002°32'2 7.5
2017-Sep-20 12:30N 39°27' E 002°34'3 5.5
2017-Sep-20 11:59N 39°28' E 002°38'3 7.1
2017-Sep-20 11:30N 39°31' E 002°38'2 4.9
2017-Sep-20 10:59N 39°34' E 002°38'0 0.0
2017-Sep-20 10:29N 39°34' E 002°38'0 0.0
2017-Sep-20 09:56N 39°34' E 002°38'0 0.0
2017-Sep-20 09:29N 39°34' E 002°38'0 0.0
2017-Sep-20 08:59N 39°34' E 002°38'0 0.0
2017-Sep-20 08:29N 39°34' E 002°38'0 0.0
2017-Sep-20 07:59N 39°34' E 002°38'0 0.0
2017-Sep-20 07:29N 39°34' E 002°38'0 0.0
2017-Sep-20 06:59N 39°34' E 002°38'0 0.0
2017-Sep-20 06:29N 39°34' E 002°38'0 0.0
2017-Sep-20 05:59N 39°34' E 002°38'0 0.0
2017-Sep-20 05:29N 39°34' E 002°38'0 0.0
2017-Sep-20 04:59N 39°34' E 002°38'0 0.0
2017-Sep-20 04:29N 39°34' E 002°38'0 0.0
2017-Sep-20 03:59N 39°34' E 002°38'0 0.0
2017-Sep-20 03:29N 39°34' E 002°38'0 0.0
2017-Sep-20 02:59N 39°34' E 002°38'0 0.0
2017-Sep-20 02:29N 39°34' E 002°38'0 0.0
2017-Sep-20 01:59N 39°34' E 002°38'0 0.0
2017-Sep-20 01:29N 39°34' E 002°38'0 0.0
2017-Sep-20 00:59N 39°34' E 002°38'0 0.0
2017-Sep-20 00:29N 39°34' E 002°38'0 0.0
2017-Sep-19 23:59N 39°34' E 002°38'0 0.0
2017-Sep-19 23:29N 39°34' E 002°38'0 0.0
2017-Sep-19 22:59N 39°34' E 002°38'0 0.0
2017-Sep-19 22:29N 39°34' E 002°38'0 0.0
2017-Sep-19 21:59N 39°34' E 002°38'0 0.0
2017-Sep-19 21:29N 39°34' E 002°38'0 0.0
2017-Sep-19 20:59N 39°34' E 002°38'0 0.0
2017-Sep-19 20:29N 39°34' E 002°38'0 0.0
2017-Sep-19 19:59N 39°34' E 002°38'0 0.0
2017-Sep-19 19:29N 39°34' E 002°38'0 0.0
2017-Sep-19 18:59N 39°34' E 002°38'0 0.0
2017-Sep-19 18:29N 39°34' E 002°38'0 0.0
2017-Sep-19 17:56N 39°34' E 002°38'0 0.0
2017-Sep-19 17:29N 39°34' E 002°38'0 0.0
2017-Sep-19 16:59N 39°34' E 002°38'0 0.0
2017-Sep-19 16:29N 39°34' E 002°38'0 0.0
2017-Sep-19 15:59N 39°34' E 002°38'0 0.0
2017-Sep-19 15:29N 39°34' E 002°38'0 0.0
2017-Sep-19 14:59N 39°34' E 002°38'0 0.0
2017-Sep-19 14:29N 39°34' E 002°38'0 0.0
2017-Sep-19 13:59N 39°34' E 002°38'0 0.0
2017-Sep-19 13:29N 39°34' E 002°38'0 0.0
2017-Sep-19 12:59N 39°34' E 002°38'0 0.0
2017-Sep-19 12:29N 39°34' E 002°38'0 0.0
2017-Sep-19 11:59N 39°34' E 002°38'0 0.0
2017-Sep-19 11:29N 39°34' E 002°38'0 0.0
2017-Sep-19 10:59N 39°34' E 002°38'0 0.0
2017-Sep-19 10:29N 39°34' E 002°38'0 0.0
2017-Sep-19 09:59N 39°34' E 002°38'0 0.0
2017-Sep-19 09:30N 39°34' E 002°38'  

Dump ship's entire track history